createdAt,value
2018-07-25T00:00:21.030Z,1007.41
2018-07-25T00:01:20.960Z,1007.37
2018-07-25T00:02:20.906Z,1007.40
2018-07-25T00:03:20.826Z,1007.38
2018-07-25T00:04:20.757Z,1007.41
2018-07-25T00:05:20.689Z,1007.38
2018-07-25T00:06:20.618Z,1007.37
2018-07-25T00:07:20.552Z,1007.38
2018-07-25T00:08:20.485Z,1007.37
2018-07-25T00:09:20.417Z,1007.44
2018-07-25T00:10:20.352Z,1007.41
2018-07-25T00:11:20.280Z,1007.44
2018-07-25T00:12:20.215Z,1007.45
2018-07-25T00:13:20.150Z,1007.44
2018-07-25T00:14:20.080Z,1007.45
2018-07-25T00:15:20.016Z,1007.42
2018-07-25T00:16:19.943Z,1007.41
2018-07-25T00:17:19.873Z,1007.38
2018-07-25T00:18:19.805Z,1007.39
2018-07-25T00:19:19.743Z,1007.36
2018-07-25T00:20:19.672Z,1007.38
2018-07-25T00:21:19.604Z,1007.31
2018-07-25T00:22:19.535Z,1007.32
2018-07-25T00:23:19.463Z,1007.29
2018-07-25T00:24:19.395Z,1007.30
2018-07-25T00:25:19.332Z,1007.31
2018-07-25T00:26:19.261Z,1007.28
2018-07-25T00:27:19.197Z,1007.30
2018-07-25T00:28:19.123Z,1007.31
2018-07-25T00:29:19.059Z,1007.32
2018-07-25T00:30:18.988Z,1007.35
2018-07-25T00:31:18.920Z,1007.35
2018-07-25T00:32:18.852Z,1007.36
2018-07-25T00:33:18.785Z,1007.37
2018-07-25T00:34:18.708Z,1007.34
2018-07-25T00:35:18.645Z,1007.40
2018-07-25T00:36:18.584Z,1007.36
2018-07-25T00:37:18.514Z,1007.41
2018-07-25T00:38:18.441Z,1007.39
2018-07-25T00:39:18.375Z,1007.42
2018-07-25T00:40:18.307Z,1007.45
2018-07-25T00:41:18.238Z,1007.45
2018-07-25T00:42:18.182Z,1007.43
2018-07-25T00:43:18.098Z,1007.44
2018-07-25T00:44:18.036Z,1007.45
2018-07-25T00:45:17.963Z,1007.44
2018-07-25T00:46:17.897Z,1007.42
2018-07-25T00:47:17.819Z,1007.42
2018-07-25T00:48:17.761Z,1007.39
2018-07-25T00:49:17.691Z,1007.40
2018-07-25T00:50:17.619Z,1007.44
2018-07-25T00:51:17.554Z,1007.46
2018-07-25T00:52:17.484Z,1007.37
2018-07-25T00:53:17.412Z,1007.35
2018-07-25T00:54:17.351Z,1007.36
2018-07-25T00:55:17.282Z,1007.35
2018-07-25T00:56:17.213Z,1007.34
2018-07-25T00:57:17.142Z,1007.36
2018-07-25T00:58:17.110Z,1007.35
2018-07-25T00:59:17.013Z,1007.42
2018-07-25T01:00:16.938Z,1007.53
2018-07-25T01:01:16.864Z,1007.52
2018-07-25T01:02:16.802Z,1007.49
2018-07-25T01:03:16.735Z,1007.52
2018-07-25T01:04:16.664Z,1007.48
2018-07-25T01:05:16.595Z,1007.48
2018-07-25T01:06:16.523Z,1007.46
2018-07-25T01:07:16.473Z,1007.47
2018-07-25T01:08:16.385Z,1007.44
2018-07-25T01:09:16.318Z,1007.48
2018-07-25T01:10:16.248Z,1007.46
2018-07-25T01:11:16.178Z,1007.45
2018-07-25T01:12:16.114Z,1007.43
2018-07-25T01:13:16.039Z,1007.47
2018-07-25T01:14:15.970Z,1007.46
2018-07-25T01:15:15.902Z,1007.47
2018-07-25T01:16:15.838Z,1007.48
2018-07-25T01:17:15.768Z,1007.48
2018-07-25T01:18:15.699Z,1007.51
2018-07-25T01:19:15.630Z,1007.51
2018-07-25T01:20:15.559Z,1007.50
2018-07-25T01:21:15.491Z,1007.55
2018-07-25T01:22:15.424Z,1007.52
2018-07-25T01:23:15.355Z,1007.55
2018-07-25T01:24:15.290Z,1007.50
2018-07-25T01:25:15.214Z,1007.48
2018-07-25T01:26:15.151Z,1007.48
2018-07-25T01:27:15.079Z,1007.48
2018-07-25T01:28:15.013Z,1007.50
2018-07-25T01:29:14.942Z,1007.52
2018-07-25T01:30:14.874Z,1007.50
2018-07-25T01:31:14.803Z,1007.47
2018-07-25T01:32:14.735Z,1007.49
2018-07-25T01:33:14.665Z,1007.47
2018-07-25T01:34:14.595Z,1007.50
2018-07-25T01:35:14.527Z,1007.53
2018-07-25T01:36:14.470Z,1007.47
2018-07-25T01:37:14.389Z,1007.51
2018-07-25T01:38:14.322Z,1007.51
2018-07-25T01:39:14.253Z,1007.56
2018-07-25T01:40:14.180Z,1007.55
2018-07-25T01:41:14.111Z,1007.57
2018-07-25T01:42:14.045Z,1007.60
2018-07-25T01:43:13.978Z,1007.60
2018-07-25T01:44:13.910Z,1007.61
2018-07-25T01:45:13.839Z,1007.60
2018-07-25T01:46:13.769Z,1007.62
2018-07-25T01:47:13.698Z,1007.62
2018-07-25T01:48:13.633Z,1007.66
2018-07-25T01:49:13.561Z,1007.62
2018-07-25T01:50:13.494Z,1007.67
2018-07-25T01:51:13.431Z,1007.67
2018-07-25T01:52:13.361Z,1007.64
2018-07-25T01:53:13.284Z,1007.65
2018-07-25T01:54:13.215Z,1007.68
2018-07-25T01:55:13.153Z,1007.69
2018-07-25T01:56:13.076Z,1007.70
2018-07-25T01:57:13.008Z,1007.65
2018-07-25T01:58:12.943Z,1007.68
2018-07-25T01:59:12.872Z,1007.66
2018-07-25T02:00:12.802Z,1007.69
2018-07-25T02:01:12.731Z,1007.68
2018-07-25T02:02:12.666Z,1007.68
2018-07-25T02:03:12.596Z,1007.69
2018-07-25T02:04:12.528Z,1007.72
2018-07-25T02:05:12.461Z,1007.72
2018-07-25T02:06:12.388Z,1007.75
2018-07-25T02:07:12.320Z,1007.76
2018-07-25T02:08:12.288Z,1007.76
2018-07-25T02:09:12.193Z,1007.78
2018-07-25T02:10:12.110Z,1007.73
2018-07-25T02:11:12.045Z,1007.78
2018-07-25T02:12:11.977Z,1007.73
2018-07-25T02:13:11.904Z,1007.73
2018-07-25T02:14:11.834Z,1007.76
2018-07-25T02:15:11.766Z,1007.74
2018-07-25T02:16:11.698Z,1007.81
2018-07-25T02:17:11.627Z,1007.76
2018-07-25T02:18:11.554Z,1007.73
2018-07-25T02:19:11.490Z,1007.76
2018-07-25T02:20:11.419Z,1007.75
2018-07-25T02:21:11.355Z,1007.73
2018-07-25T02:22:11.281Z,1007.77
2018-07-25T02:23:11.211Z,1007.75
2018-07-25T02:24:11.145Z,1007.77
2018-07-25T02:25:11.074Z,1007.78
2018-07-25T02:26:11.010Z,1007.80
2018-07-25T02:27:10.936Z,1007.78
2018-07-25T02:28:10.868Z,1007.79
2018-07-25T02:29:10.799Z,1007.78
2018-07-25T02:30:10.729Z,1007.80
2018-07-25T02:31:10.657Z,1007.86
2018-07-25T02:32:10.590Z,1007.84
2018-07-25T02:33:10.522Z,1007.83
2018-07-25T02:34:10.459Z,1007.83
2018-07-25T02:35:10.377Z,1007.85
2018-07-25T02:36:10.317Z,1007.87
2018-07-25T02:37:10.242Z,1007.84
2018-07-25T02:38:10.175Z,1007.86
2018-07-25T02:39:10.103Z,1007.89
2018-07-25T02:40:10.038Z,1007.90
2018-07-25T02:41:09.965Z,1007.89
2018-07-25T02:42:09.903Z,1007.90
2018-07-25T02:43:09.832Z,1007.91
2018-07-25T02:44:09.764Z,1007.93
2018-07-25T02:45:09.689Z,1007.94
2018-07-25T02:46:09.621Z,1007.95
2018-07-25T02:47:09.549Z,1007.90
2018-07-25T02:48:09.487Z,1007.95
2018-07-25T02:49:09.410Z,1007.98
2018-07-25T02:50:09.345Z,1007.97
2018-07-25T02:51:09.270Z,1007.96
2018-07-25T02:52:09.214Z,1007.98
2018-07-25T02:53:09.134Z,1007.99
2018-07-25T02:54:09.074Z,1007.98
2018-07-25T02:55:08.997Z,1008.01
2018-07-25T02:56:08.928Z,1007.99
2018-07-25T02:57:08.858Z,1007.98
2018-07-25T02:58:08.789Z,1007.97
2018-07-25T02:59:08.715Z,1008.03
2018-07-25T03:00:08.649Z,1007.97
2018-07-25T03:01:08.578Z,1007.97
2018-07-25T03:02:08.504Z,1008.02
2018-07-25T03:03:08.451Z,1008.01
2018-07-25T03:04:08.372Z,1008.00
2018-07-25T03:05:08.313Z,1008.02
2018-07-25T03:06:08.230Z,1008.04
2018-07-25T03:07:08.218Z,1008.02
2018-07-25T03:08:08.152Z,1008.03
2018-07-25T03:09:08.118Z,1008.04
2018-07-25T03:10:07.960Z,1008.03
2018-07-25T03:11:07.888Z,1008.04
2018-07-25T03:12:07.811Z,1008.06
2018-07-25T03:13:07.746Z,1008.09
2018-07-25T03:14:07.670Z,1008.10
2018-07-25T03:15:07.613Z,1008.10
2018-07-25T03:16:07.536Z,1008.08
2018-07-25T03:17:07.464Z,1008.09
2018-07-25T03:18:07.387Z,1008.07
2018-07-25T03:19:07.337Z,1008.06
2018-07-25T03:20:07.254Z,1008.08
2018-07-25T03:21:07.186Z,1008.12
2018-07-25T03:22:07.113Z,1008.09
2018-07-25T03:23:07.045Z,1008.09
2018-07-25T03:24:06.983Z,1008.11
2018-07-25T03:25:06.911Z,1008.13
2018-07-25T03:26:06.833Z,1008.16
2018-07-25T03:27:06.772Z,1008.13
2018-07-25T03:28:06.705Z,1008.12
2018-07-25T03:29:06.642Z,1008.12
2018-07-25T03:30:06.564Z,1008.14
2018-07-25T03:31:07.255Z,1008.11
2018-07-25T03:32:06.423Z,1008.15
2018-07-25T03:33:06.351Z,1008.14
2018-07-25T03:34:06.274Z,1008.12
2018-07-25T03:35:06.216Z,1008.18
2018-07-25T03:36:06.136Z,1008.13
2018-07-25T03:37:06.071Z,1008.15
2018-07-25T03:38:05.999Z,1008.16
2018-07-25T03:39:05.932Z,1008.17
2018-07-25T03:40:05.864Z,1008.19
2018-07-25T03:41:05.785Z,1008.19
2018-07-25T03:42:05.717Z,1008.18
2018-07-25T03:43:05.660Z,1008.15
2018-07-25T03:44:05.596Z,1008.18
2018-07-25T03:45:05.521Z,1008.18
2018-07-25T03:46:05.439Z,1008.21
2018-07-25T03:47:05.374Z,1008.19
2018-07-25T03:48:05.303Z,1008.21
2018-07-25T03:49:05.234Z,1008.21
2018-07-25T03:50:05.208Z,1008.23
2018-07-25T03:51:05.096Z,1008.22
2018-07-25T03:52:05.026Z,1008.23
2018-07-25T03:53:04.957Z,1008.21
2018-07-25T03:54:04.884Z,1008.28
2018-07-25T03:55:04.818Z,1008.24
2018-07-25T03:56:04.747Z,1008.25
2018-07-25T03:57:04.676Z,1008.25
2018-07-25T03:58:04.604Z,1008.23
2018-07-25T03:59:04.538Z,1008.22
2018-07-25T04:00:04.467Z,1008.24
2018-07-25T04:01:04.402Z,1008.22
2018-07-25T04:02:04.356Z,1008.22
2018-07-25T04:03:04.259Z,1008.23
2018-07-25T04:04:04.187Z,1008.23
2018-07-25T04:05:04.125Z,1008.29
2018-07-25T04:06:04.050Z,1008.29
2018-07-25T04:07:03.980Z,1008.29
2018-07-25T04:08:03.909Z,1008.30
2018-07-25T04:09:03.868Z,1008.30
2018-07-25T04:10:03.773Z,1008.28
2018-07-25T04:11:03.694Z,1008.33
2018-07-25T04:12:03.625Z,1008.31
2018-07-25T04:13:03.558Z,1008.33
2018-07-25T04:14:03.494Z,1008.30
2018-07-25T04:15:03.420Z,1008.38
2018-07-25T04:16:03.351Z,1008.35
2018-07-25T04:17:03.281Z,1008.34
2018-07-25T04:18:03.210Z,1008.37
2018-07-25T04:19:03.145Z,1008.37
2018-07-25T04:20:03.076Z,1008.35
2018-07-25T04:21:03.001Z,1008.36
2018-07-25T04:22:02.945Z,1008.40
2018-07-25T04:23:02.865Z,1008.39
2018-07-25T04:24:02.795Z,1008.40
2018-07-25T04:25:02.723Z,1008.37
2018-07-25T04:26:02.649Z,1008.37
2018-07-25T04:27:02.584Z,1008.38
2018-07-25T04:28:02.512Z,1008.37
2018-07-25T04:29:02.441Z,1008.41
2018-07-25T04:30:02.384Z,1008.39
2018-07-25T04:31:02.304Z,1008.43
2018-07-25T04:32:02.232Z,1008.44
2018-07-25T04:33:02.173Z,1008.43
2018-07-25T04:34:02.088Z,1008.47
2018-07-25T04:35:02.021Z,1008.44
2018-07-25T04:36:01.952Z,1008.46
2018-07-25T04:37:01.886Z,1008.47
2018-07-25T04:38:01.809Z,1008.51
2018-07-25T04:39:01.742Z,1008.50
2018-07-25T04:40:01.677Z,1008.48
2018-07-25T04:41:01.606Z,1008.50
2018-07-25T04:42:01.533Z,1008.53
2018-07-25T04:43:01.465Z,1008.49
2018-07-25T04:44:01.393Z,1008.51
2018-07-25T04:45:01.322Z,1008.53
2018-07-25T04:46:01.354Z,1008.51
2018-07-25T04:47:01.180Z,1008.55
2018-07-25T04:48:01.115Z,1008.53
2018-07-25T04:49:01.051Z,1008.54
2018-07-25T04:50:00.977Z,1008.54
2018-07-25T04:51:00.902Z,1008.57
2018-07-25T04:52:00.835Z,1008.53
2018-07-25T04:53:00.778Z,1008.52
2018-07-25T04:54:00.691Z,1008.53
2018-07-25T04:55:00.621Z,1008.51
2018-07-25T04:56:00.574Z,1008.53
2018-07-25T04:57:00.485Z,1008.54
2018-07-25T04:58:00.409Z,1008.51
2018-07-25T04:59:00.342Z,1008.55
2018-07-25T05:00:00.321Z,1008.59
2018-07-25T05:01:00.205Z,1008.54
2018-07-25T05:02:00.141Z,1008.60
2018-07-25T05:03:00.065Z,1008.52
2018-07-25T05:03:59.998Z,1008.58
2018-07-25T05:04:59.920Z,1008.57
2018-07-25T05:05:59.853Z,1008.58
2018-07-25T05:06:59.846Z,1008.63
2018-07-25T05:07:59.713Z,1008.63
2018-07-25T05:08:59.642Z,1008.67
2018-07-25T05:09:59.581Z,1008.67
2018-07-25T05:10:59.503Z,1008.67
2018-07-25T05:11:59.436Z,1008.70
2018-07-25T05:12:59.373Z,1008.72
2018-07-25T05:13:59.293Z,1008.69
2018-07-25T05:14:59.228Z,1008.71
2018-07-25T05:15:59.156Z,1008.72
2018-07-25T05:16:59.090Z,1008.70
2018-07-25T05:17:59.065Z,1008.70
2018-07-25T05:18:58.958Z,1008.70
2018-07-25T05:19:58.877Z,1008.71
2018-07-25T05:20:58.810Z,1008.71
2018-07-25T05:21:58.741Z,1008.75
2018-07-25T05:22:58.667Z,1008.71
2018-07-25T05:23:58.600Z,1008.75
2018-07-25T05:24:58.532Z,1008.74
2018-07-25T05:25:58.465Z,1008.81
2018-07-25T05:26:58.394Z,1008.82
2018-07-25T05:27:58.321Z,1008.85
2018-07-25T05:28:58.258Z,1008.82
2018-07-25T05:29:58.178Z,1008.87
2018-07-25T05:30:58.116Z,1008.85
2018-07-25T05:31:58.044Z,1008.86
2018-07-25T05:32:57.970Z,1008.95
2018-07-25T05:33:57.906Z,1008.95
2018-07-25T05:34:57.829Z,1008.93
2018-07-25T05:35:57.761Z,1008.96
2018-07-25T05:36:57.692Z,1008.97
2018-07-25T05:37:57.627Z,1008.90
2018-07-25T05:38:57.552Z,1008.92
2018-07-25T05:39:57.491Z,1008.96
2018-07-25T05:40:57.417Z,1008.98
2018-07-25T05:41:57.346Z,1008.92
2018-07-25T05:42:57.289Z,1008.92
2018-07-25T05:43:57.219Z,1008.95
2018-07-25T05:44:57.140Z,1008.94
2018-07-25T05:45:57.068Z,1008.92
2018-07-25T05:46:57.003Z,1008.94
2018-07-25T05:47:56.928Z,1008.96
2018-07-25T05:48:56.874Z,1008.97
2018-07-25T05:49:56.801Z,1009.00
2018-07-25T05:50:56.722Z,1008.98
2018-07-25T05:51:56.668Z,1009.01
2018-07-25T05:52:56.584Z,1009.06
2018-07-25T05:53:56.534Z,1009.04
2018-07-25T05:54:56.444Z,1009.05
2018-07-25T05:55:56.379Z,1009.06
2018-07-25T05:56:56.306Z,1009.04
2018-07-25T05:57:56.237Z,1009.06
2018-07-25T05:58:56.167Z,1009.10
2018-07-25T05:59:56.097Z,1009.09
2018-07-25T06:00:56.028Z,1009.13
2018-07-25T06:01:55.964Z,1009.05
2018-07-25T06:02:55.925Z,1009.10
2018-07-25T06:03:55.828Z,1009.12
2018-07-25T06:04:55.756Z,1009.11
2018-07-25T06:05:55.709Z,1009.16
2018-07-25T06:06:55.624Z,1009.15
2018-07-25T06:07:55.546Z,1009.14
2018-07-25T06:08:55.477Z,1009.11
2018-07-25T06:09:55.411Z,1009.14
2018-07-25T06:10:55.338Z,1009.14
2018-07-25T06:11:55.272Z,1009.15
2018-07-25T06:12:55.229Z,1009.17
2018-07-25T06:13:55.134Z,1009.13
2018-07-25T06:14:55.065Z,1009.15
2018-07-25T06:15:54.993Z,1009.13
2018-07-25T06:16:54.933Z,1009.15
2018-07-25T06:17:54.861Z,1009.12
2018-07-25T06:18:54.789Z,1009.15
2018-07-25T06:19:54.721Z,1009.13
2018-07-25T06:20:54.653Z,1009.14
2018-07-25T06:21:54.588Z,1009.13
2018-07-25T06:22:54.518Z,1009.12
2018-07-25T06:23:54.446Z,1009.14
2018-07-25T06:24:54.395Z,1009.14
2018-07-25T06:25:54.332Z,1009.19
2018-07-25T06:26:54.250Z,1009.15
2018-07-25T06:27:54.174Z,1009.18
2018-07-25T06:28:54.127Z,1009.20
2018-07-25T06:29:54.039Z,1009.19
2018-07-25T06:30:53.965Z,1009.18
2018-07-25T06:31:53.901Z,1009.19
2018-07-25T06:32:53.832Z,1009.21
2018-07-25T06:33:53.762Z,1009.21
2018-07-25T06:34:53.741Z,1009.20
2018-07-25T06:35:53.626Z,1009.22
2018-07-25T06:36:53.559Z,1009.17
2018-07-25T06:37:53.520Z,1009.18
2018-07-25T06:38:53.420Z,1009.17
2018-07-25T06:39:53.363Z,1009.19
2018-07-25T06:40:53.287Z,1009.19
2018-07-25T06:41:53.232Z,1009.23
2018-07-25T06:42:53.152Z,1009.22
2018-07-25T06:43:53.084Z,1009.26
2018-07-25T06:44:53.014Z,1009.25
2018-07-25T06:45:52.961Z,1009.26
2018-07-25T06:46:52.880Z,1009.24
2018-07-25T06:47:52.808Z,1009.25
2018-07-25T06:48:52.740Z,1009.29
2018-07-25T06:49:52.678Z,1009.30
2018-07-25T06:50:52.618Z,1009.29
2018-07-25T06:51:52.537Z,1009.32
2018-07-25T06:52:52.470Z,1009.32
2018-07-25T06:53:52.401Z,1009.32
2018-07-25T06:54:52.334Z,1009.34
2018-07-25T06:55:52.290Z,1009.34
2018-07-25T06:56:52.194Z,1009.36
2018-07-25T06:57:52.135Z,1009.38
2018-07-25T06:58:52.064Z,1009.35
2018-07-25T06:59:51.996Z,1009.38
2018-07-25T07:00:51.928Z,1009.35
2018-07-25T07:01:51.872Z,1009.36
2018-07-25T07:02:51.798Z,1009.35
2018-07-25T07:03:51.726Z,1009.38
2018-07-25T07:04:51.665Z,1009.39
2018-07-25T07:05:51.588Z,1009.40
2018-07-25T07:06:51.570Z,1009.38
2018-07-25T07:07:51.455Z,1009.40
2018-07-25T07:08:51.383Z,1009.38
2018-07-25T07:09:51.330Z,1009.38
2018-07-25T07:10:51.256Z,1009.38
2018-07-25T07:11:51.187Z,1009.37
2018-07-25T07:12:51.123Z,1009.35
2018-07-25T07:13:51.059Z,1009.38
2018-07-25T07:14:50.984Z,1009.38
2018-07-25T07:15:50.931Z,1009.41
2018-07-25T07:16:50.849Z,1009.38
2018-07-25T07:17:50.782Z,1009.44
2018-07-25T07:18:50.714Z,1009.41
2018-07-25T07:19:50.651Z,1009.40
2018-07-25T07:20:50.583Z,1009.38
2018-07-25T07:21:50.513Z,1009.38
2018-07-25T07:22:50.450Z,1009.39
2018-07-25T07:23:50.382Z,1009.39
2018-07-25T07:24:50.312Z,1009.37
2018-07-25T07:25:50.276Z,1009.37
2018-07-25T07:26:50.176Z,1009.40
2018-07-25T07:27:50.119Z,1009.39
2018-07-25T07:28:50.043Z,1009.40
2018-07-25T07:29:49.981Z,1009.42
2018-07-25T07:30:49.908Z,1009.38
2018-07-25T07:31:49.846Z,1009.39
2018-07-25T07:32:49.798Z,1009.39
2018-07-25T07:33:49.707Z,1009.41
2018-07-25T07:34:49.646Z,1009.43
2018-07-25T07:35:49.574Z,1009.41
2018-07-25T07:36:49.504Z,1009.37
2018-07-25T07:37:49.551Z,1009.37
2018-07-25T07:38:49.377Z,1009.33
2018-07-25T07:39:49.314Z,1009.36
2018-07-25T07:40:49.242Z,1009.41
2018-07-25T07:41:49.186Z,1009.41
2018-07-25T07:42:49.138Z,1009.38
2018-07-25T07:43:49.043Z,1009.38
2018-07-25T07:44:48.986Z,1009.36
2018-07-25T07:45:48.907Z,1009.36
2018-07-25T07:46:48.843Z,1009.35
2018-07-25T07:47:48.775Z,1009.37
2018-07-25T07:48:48.705Z,1009.37
2018-07-25T07:49:48.641Z,1009.37
2018-07-25T07:50:48.590Z,1009.33
2018-07-25T07:51:48.592Z,1009.36
2018-07-25T07:52:48.448Z,1009.34
2018-07-25T07:53:48.374Z,1009.36
2018-07-25T07:54:48.329Z,1009.40
2018-07-25T07:55:48.247Z,1009.37
2018-07-25T07:56:48.186Z,1009.41
2018-07-25T07:57:48.111Z,1009.41
2018-07-25T07:58:48.054Z,1009.42
2018-07-25T07:59:47.983Z,1009.43
2018-07-25T08:00:47.910Z,1009.42
2018-07-25T08:01:47.845Z,1009.44
2018-07-25T08:02:47.781Z,1009.43
2018-07-25T08:03:47.713Z,1009.44
2018-07-25T08:04:47.659Z,1009.42
2018-07-25T08:05:47.581Z,1009.47
2018-07-25T08:06:47.520Z,1009.47
2018-07-25T08:07:47.451Z,1009.45
2018-07-25T08:08:47.378Z,1009.42
2018-07-25T08:09:47.321Z,1009.41
2018-07-25T08:10:47.358Z,1009.46
2018-07-25T08:11:47.179Z,1009.45
2018-07-25T08:12:47.152Z,1009.42
2018-07-25T08:13:47.057Z,1009.46
2018-07-25T08:14:46.981Z,1009.46
2018-07-25T08:15:46.918Z,1009.48
2018-07-25T08:16:46.860Z,1009.49
2018-07-25T08:17:46.829Z,1009.52
2018-07-25T08:18:46.725Z,1009.50
2018-07-25T08:19:46.686Z,1009.45
2018-07-25T08:20:46.598Z,1009.49
2018-07-25T08:21:46.526Z,1009.48
2018-07-25T08:22:46.475Z,1009.47
2018-07-25T08:23:46.396Z,1009.48
2018-07-25T08:24:46.331Z,1009.50
2018-07-25T08:25:46.284Z,1009.53
2018-07-25T08:26:46.205Z,1009.53
2018-07-25T08:27:46.131Z,1009.52
2018-07-25T08:28:46.078Z,1009.53
2018-07-25T08:29:46.011Z,1009.52
2018-07-25T08:30:45.936Z,1009.49
2018-07-25T08:31:45.877Z,1009.48
2018-07-25T08:32:45.810Z,1009.49
2018-07-25T08:33:45.758Z,1009.47
2018-07-25T08:34:45.685Z,1009.50
2018-07-25T08:35:45.611Z,1009.53
2018-07-25T08:36:45.548Z,1009.46
2018-07-25T08:37:45.481Z,1009.50
2018-07-25T08:38:45.420Z,1009.47
2018-07-25T08:39:45.353Z,1009.46
2018-07-25T08:40:45.294Z,1009.45
2018-07-25T08:41:45.261Z,1009.42
2018-07-25T08:42:45.158Z,1009.42
2018-07-25T08:43:45.093Z,1009.44
2018-07-25T08:44:45.028Z,1009.45
2018-07-25T08:45:44.964Z,1009.44
2018-07-25T08:46:44.928Z,1009.43
2018-07-25T08:47:44.824Z,1009.46
2018-07-25T08:48:44.763Z,1009.42
2018-07-25T08:49:44.707Z,1009.45
2018-07-25T08:50:44.636Z,1009.44
2018-07-25T08:51:44.571Z,1009.40
2018-07-25T08:52:44.616Z,1009.41
2018-07-25T08:53:44.444Z,1009.43
2018-07-25T08:54:44.381Z,1009.44
2018-07-25T08:55:44.315Z,1009.41
2018-07-25T08:56:44.253Z,1009.43
2018-07-25T08:57:44.249Z,1009.42
2018-07-25T08:58:44.120Z,1009.41
2018-07-25T08:59:44.066Z,1009.38
2018-07-25T09:00:43.991Z,1009.43
2018-07-25T09:01:43.955Z,1009.36
2018-07-25T09:02:43.865Z,1009.43
2018-07-25T09:03:43.804Z,1009.42
2018-07-25T09:04:43.733Z,1009.44
2018-07-25T09:05:43.670Z,1009.47
2018-07-25T09:06:43.612Z,1009.41
2018-07-25T09:07:43.549Z,1009.39
2018-07-25T09:08:43.479Z,1009.49
2018-07-25T09:09:43.483Z,1009.48
2018-07-25T09:10:43.358Z,1009.44
2018-07-25T09:11:43.288Z,1009.43
2018-07-25T09:12:43.260Z,1009.46
2018-07-25T09:13:43.170Z,1009.49
2018-07-25T09:14:43.106Z,1009.49
2018-07-25T09:15:43.042Z,1009.43
2018-07-25T09:16:42.984Z,1009.46
2018-07-25T09:17:42.917Z,1009.43
2018-07-25T09:18:42.860Z,1009.42
2018-07-25T09:19:42.836Z,1009.41
2018-07-25T09:20:42.726Z,1009.47
2018-07-25T09:21:42.669Z,1009.41
2018-07-25T09:22:42.605Z,1009.42
2018-07-25T09:23:42.536Z,1009.41
2018-07-25T09:24:42.474Z,1009.48
2018-07-25T09:25:42.427Z,1009.46
2018-07-25T09:26:42.368Z,1009.44
2018-07-25T09:27:42.294Z,1009.42
2018-07-25T09:28:42.250Z,1009.39
2018-07-25T09:29:42.177Z,1009.43
2018-07-25T09:30:42.115Z,1009.46
2018-07-25T09:31:42.058Z,1009.42
2018-07-25T09:32:42.002Z,1009.48
2018-07-25T09:33:41.993Z,1009.50
2018-07-25T09:34:41.879Z,1009.52
2018-07-25T09:35:41.818Z,1009.48
2018-07-25T09:36:41.784Z,1009.47
2018-07-25T09:37:41.712Z,1009.47
2018-07-25T09:38:41.648Z,1009.44
2018-07-25T09:39:41.590Z,1009.51
2018-07-25T09:40:41.558Z,1009.47
2018-07-25T09:41:41.472Z,1009.44
2018-07-25T09:42:41.427Z,1009.45
2018-07-25T09:43:41.369Z,1009.46
2018-07-25T09:44:41.306Z,1009.48
2018-07-25T09:45:41.260Z,1009.44
2018-07-25T09:46:41.295Z,1009.49
2018-07-25T09:47:41.136Z,1009.51
2018-07-25T09:48:41.071Z,1009.49
2018-07-25T09:49:41.030Z,1009.49
2018-07-25T09:50:40.967Z,1009.46
2018-07-25T09:51:40.914Z,1009.46
2018-07-25T09:52:40.891Z,1009.41
2018-07-25T09:53:40.802Z,1009.42
2018-07-25T09:54:40.755Z,1009.40
2018-07-25T09:55:40.734Z,1009.41
2018-07-25T09:56:40.648Z,1009.41
2018-07-25T09:57:40.589Z,1009.42
2018-07-25T09:58:40.560Z,1009.44
2018-07-25T09:59:40.486Z,1009.44
2018-07-25T10:00:40.447Z,1009.43
2018-07-25T10:01:40.387Z,1009.40
2018-07-25T10:02:40.331Z,1009.36
2018-07-25T10:03:40.268Z,1009.39
2018-07-25T10:04:40.229Z,1009.37
2018-07-25T10:05:40.157Z,1009.38
2018-07-25T10:06:40.103Z,1009.39
2018-07-25T10:07:40.109Z,1009.42
2018-07-25T10:08:40.001Z,1009.37
2018-07-25T10:09:39.953Z,1009.40
2018-07-25T10:10:39.915Z,1009.39
2018-07-25T10:11:39.852Z,1009.38
2018-07-25T10:12:39.793Z,1009.37
2018-07-25T10:13:39.751Z,1009.35
2018-07-25T10:14:39.686Z,1009.37
2018-07-25T10:15:39.636Z,1009.36
2018-07-25T10:16:39.584Z,1009.38
2018-07-25T10:17:39.525Z,1009.42
2018-07-25T10:18:39.483Z,1009.37
2018-07-25T10:19:39.439Z,1009.36
2018-07-25T10:20:39.379Z,1009.35
2018-07-25T10:21:39.332Z,1009.39
2018-07-25T10:22:39.272Z,1009.35
2018-07-25T10:23:39.218Z,1009.34
2018-07-25T10:24:39.159Z,1009.31
2018-07-25T10:25:39.118Z,1009.28
2018-07-25T10:26:39.105Z,1009.31
2018-07-25T10:27:39.032Z,1009.27
2018-07-25T10:28:38.993Z,1009.32
2018-07-25T10:29:38.911Z,1009.29
2018-07-25T10:30:38.854Z,1009.31
2018-07-25T10:31:38.799Z,1009.24
2018-07-25T10:32:38.764Z,1009.19
2018-07-25T10:33:38.712Z,1009.14
2018-07-25T10:34:38.642Z,1009.16
2018-07-25T10:35:38.614Z,1009.20
2018-07-25T10:36:38.541Z,1009.24
2018-07-25T10:37:38.490Z,1009.22
2018-07-25T10:38:38.432Z,1009.23
2018-07-25T10:39:38.387Z,1009.25
2018-07-25T10:40:38.328Z,1009.23
2018-07-25T10:41:38.274Z,1009.22
2018-07-25T10:42:38.228Z,1009.17
2018-07-25T10:43:38.182Z,1009.16
2018-07-25T10:44:38.109Z,1009.13
2018-07-25T10:45:38.069Z,1009.15
2018-07-25T10:46:37.999Z,1009.12
2018-07-25T10:47:37.946Z,1009.15
2018-07-25T10:48:37.899Z,1009.13
2018-07-25T10:49:37.841Z,1009.13
2018-07-25T10:50:37.780Z,1009.04
2018-07-25T10:51:37.735Z,1009.05
2018-07-25T10:52:37.675Z,1009.04
2018-07-25T10:53:37.609Z,1009.00
2018-07-25T10:54:37.555Z,1009.03
2018-07-25T10:55:37.505Z,1009.03
2018-07-25T10:56:37.440Z,1009.06
2018-07-25T10:57:37.386Z,1009.01
2018-07-25T10:58:37.338Z,1008.98
2018-07-25T10:59:37.273Z,1009.04
2018-07-25T11:00:37.213Z,1009.01
2018-07-25T11:01:37.155Z,1009.06
2018-07-25T11:02:37.103Z,1008.97
2018-07-25T11:03:37.038Z,1008.95
2018-07-25T11:04:36.977Z,1009.01
2018-07-25T11:05:36.943Z,1008.92
2018-07-25T11:06:36.863Z,1008.94
2018-07-25T11:07:36.809Z,1008.96
2018-07-25T11:08:36.755Z,1008.93
2018-07-25T11:09:36.710Z,1008.90
2018-07-25T11:10:36.634Z,1008.91
2018-07-25T11:11:36.579Z,1008.88
2018-07-25T11:12:36.516Z,1008.86
2018-07-25T11:13:36.456Z,1008.84
2018-07-25T11:14:36.422Z,1008.80
2018-07-25T11:15:36.353Z,1008.76
2018-07-25T11:16:36.295Z,1008.73
2018-07-25T11:17:36.225Z,1008.73
2018-07-25T11:18:36.160Z,1008.71
2018-07-25T11:19:36.101Z,1008.69
2018-07-25T11:20:36.048Z,1008.69
2018-07-25T11:21:35.991Z,1008.76
2018-07-25T11:22:35.917Z,1008.79
2018-07-25T11:23:35.866Z,1008.79
2018-07-25T11:24:35.806Z,1008.73
2018-07-25T11:25:35.744Z,1008.67
2018-07-25T11:26:35.689Z,1008.72
2018-07-25T11:27:35.630Z,1008.69
2018-07-25T11:28:35.568Z,1008.73
2018-07-25T11:29:35.510Z,1008.72
2018-07-25T11:30:35.465Z,1008.71
2018-07-25T11:31:35.393Z,1008.72
2018-07-25T11:32:35.435Z,1008.68
2018-07-25T11:33:35.276Z,1008.67
2018-07-25T11:34:35.218Z,1008.66
2018-07-25T11:35:35.154Z,1008.63
2018-07-25T11:36:35.089Z,1008.67
2018-07-25T11:37:35.038Z,1008.62
2018-07-25T11:38:34.977Z,1008.65
2018-07-25T11:39:34.919Z,1008.61
2018-07-25T11:40:34.861Z,1008.59
2018-07-25T11:41:34.817Z,1008.61
2018-07-25T11:42:34.755Z,1008.58
2018-07-25T11:43:34.691Z,1008.59
2018-07-25T11:44:34.625Z,1008.58
2018-07-25T11:45:34.560Z,1008.56
2018-07-25T11:46:34.498Z,1008.57
2018-07-25T11:47:34.442Z,1008.57
2018-07-25T11:48:34.390Z,1008.50
2018-07-25T11:49:34.322Z,1008.51
2018-07-25T11:50:34.261Z,1008.50
2018-07-25T11:51:34.206Z,1008.46
2018-07-25T11:52:34.143Z,1008.50
2018-07-25T11:53:34.078Z,1008.48
2018-07-25T11:54:34.022Z,1008.50
2018-07-25T11:55:33.980Z,1008.45
2018-07-25T11:56:33.897Z,1008.51
2018-07-25T11:57:33.836Z,1008.45
2018-07-25T11:58:33.777Z,1008.44
2018-07-25T11:59:33.730Z,1008.44
2018-07-25T12:00:33.656Z,1008.44
2018-07-25T12:01:33.664Z,1008.44
2018-07-25T12:02:33.540Z,1008.44
2018-07-25T12:03:33.475Z,1008.40
2018-07-25T12:04:33.415Z,1008.40